Arcola, Texas
Current Conditions -  °F | °C
As of 9:55 PM on Thursday 18 Dec 2014 (Local Time) from KAXH Reporting Station
Overcast Overcast  
Wind Chill: 13°   Ceiling: 800
Heat Index: 13°   Visibility: 10mi
Dew Point: 12°   Wind: 10mph
Humidity: 94%   Direction: 70°ENE
Pressure: 30.05"   Gusts: NA
Location:  29.4042°N, 95.4477°W
Report Text: KAXH 190355Z AUTO 07009KT 10SM OVC008 13/12 A3005 RMK AO2 LTG DSNT W T01250116
Loading
Personal Weather Stations






























Interactive Weather Map New forecast layout! Learn more

10-Day Weather Forecast

Advertisements
Track Severe Weather on mobile